Time;durP1;ratioP1;P1;durP2;ratioP2;P2;SDS_P1;SDS_P2;PMS_P1;PMS_P2;Temp;Humidity;BMP_temperature;BMP_pressure;BME280_temperature;BME280_humidity;BME280_pressure;Samples;Min_cycle;Max_cycle;Signal;HPM_P1;HPM_P2
2023/11/04 00:01:04;;;;;;;5.55;3.92;;;11.50;99.90;;;;;;5036035;28;20037;-54
2023/11/04 00:03:29;;;;;;;7.90;3.75;;;11.60;99.90;;;;;;5035612;28;20037;-54
2023/11/04 00:05:55;;;;;;;6.13;3.40;;;11.50;99.90;;;;;;5035654;28;20435;-54
2023/11/04 00:08:21;;;;;;;7.20;3.58;;;11.10;99.90;;;;;;5013084;28;20469;-54
2023/11/04 00:10:49;;;;;;;5.72;3.47;;;10.90;99.90;;;;;;5013245;28;20049;-55
2023/11/04 00:13:16;;;;;;;7.00;3.30;;;;;;;;;;5013330;28;20141;-56
2023/11/04 00:15:41;;;;;;;4.78;2.88;;;10.90;99.90;;;;;;5013141;28;20064;-55
2023/11/04 00:18:07;;;;;;;10.02;3.22;;;10.90;99.90;;;;;;4932051;28;20785;-56
2023/11/04 00:20:33;;;;;;;5.28;3.13;;;10.90;99.90;;;;;;5013033;28;20544;-55
2023/11/04 00:22:59;;;;;;;7.43;3.97;;;10.90;99.90;;;;;;5012995;28;20100;-54
2023/11/04 00:25:25;;;;;;;5.40;3.33;;;11.00;99.90;;;;;;5013175;28;20043;-54
2023/11/04 00:27:50;;;;;;;13.73;8.60;;;11.20;99.90;;;;;;5012762;28;20153;-55
2023/11/04 00:30:16;;;;;;;15.77;9.73;;;11.40;99.90;;;;;;5013020;28;20137;-54
2023/11/04 00:32:42;;;;;;;10.25;6.43;;;11.60;99.90;;;;;;5012893;28;20453;-53
2023/11/04 00:35:08;;;;;;;8.60;5.25;;;11.20;99.90;;;;;;5012950;28;20046;-55
2023/11/04 00:37:34;;;;;;;8.50;4.50;;;10.90;99.90;;;;;;4980068;28;20034;-54
2023/11/04 00:40:06;;;;;;;10.18;6.40;;;11.00;99.90;;;;;;5029880;28;20121;-55
2023/11/04 00:42:32;;;;;;;11.68;8.02;;;;;;;;;;5034900;28;20026;-54
2023/11/04 00:44:58;;;;;;;16.15;10.20;;;11.30;99.90;;;;;;5034952;28;20068;-54
2023/11/04 00:47:24;;;;;;;13.30;9.23;;;10.80;99.90;;;;;;5034765;28;20080;-54
2023/11/04 00:49:50;;;;;;;13.60;9.90;;;10.70;99.90;;;;;;5034737;28;20505;-54
2023/11/04 00:52:15;;;;;;;13.98;9.20;;;10.50;99.90;;;;;;5034920;28;20051;-54
2023/11/04 00:54:41;;;;;;;10.95;6.80;;;10.60;99.90;;;;;;5034961;28;20091;-55
2023/11/04 00:57:07;;;;;;;12.13;6.85;;;10.30;99.90;;;;;;5034654;28;20032;-54
2023/11/04 00:59:33;;;;;;;7.55;5.95;;;10.20;99.90;;;;;;5034746;28;20028;-55
2023/11/04 01:01:59;;;;;;;8.48;5.13;;;10.30;99.90;;;;;;5034635;28;20029;-54
2023/11/04 01:04:25;;;;;;;12.13;5.63;;;10.40;99.90;;;;;;5033302;28;20033;-54
2023/11/04 01:06:51;;;;;;;6.60;3.50;;;10.30;99.90;;;;;;5034299;28;20034;-53
2023/11/04 01:09:17;;;;;;;6.30;3.10;;;10.20;99.90;;;;;;5034394;28;20038;-55
2023/11/04 01:11:45;;;;;;;4.82;2.30;;;10.30;99.90;;;;;;5034397;28;20030;-53
2023/11/04 01:14:11;;;;;;;6.80;2.53;;;10.10;99.90;;;;;;5012018;28;20370;-54
2023/11/04 01:16:37;;;;;;;5.03;2.90;;;10.20;99.90;;;;;;5011973;28;20049;-55
2023/11/04 01:19:04;;;;;;;5.25;2.50;;;10.30;99.90;;;;;;5012170;28;20033;-56
2023/11/04 01:21:31;;;;;;;6.05;2.70;;;10.40;99.90;;;;;;4963205;28;20045;-54
2023/11/04 01:23:57;;;;;;;6.85;2.40;;;10.60;99.90;;;;;;5011858;28;20081;-53
2023/11/04 01:26:22;;;;;;;5.30;2.10;;;10.70;99.90;;;;;;5012083;28;20056;-54
2023/11/04 01:28:48;;;;;;;5.07;2.65;;;10.60;99.90;;;;;;5011715;28;20049;-55
2023/11/04 01:31:14;;;;;;;5.65;2.55;;;10.60;99.90;;;;;;5011955;28;20038;-54
2023/11/04 01:33:40;;;;;;;4.65;2.35;;;;;;;;;;4962869;28;20563;-55
2023/11/04 01:36:06;;;;;;;6.00;3.03;;;10.80;99.90;;;;;;5011610;28;20072;-55
2023/11/04 01:38:32;;;;;;;1.73;1.30;;;10.80;99.90;;;;;;4946947;28;20038;-54
2023/11/04 01:40:58;;;;;;;2.95;1.70;;;10.60;99.90;;;;;;4962808;28;20048;-54
2023/11/04 01:43:29;;;;;;;5.05;2.08;;;10.70;99.90;;;;;;4962856;28;20070;-55
2023/11/04 01:46:09;;;;;;;3.55;1.88;;;10.70;99.90;;;;;;5029196;28;20052;-55
2023/11/04 01:48:42;;;;;;;3.83;1.75;;;10.80;99.90;;;;;;5033594;28;20183;-54
2023/11/04 01:51:09;;;;;;;4.20;1.70;;;10.80;99.90;;;;;;5033927;28;20087;-55
2023/11/04 01:53:37;;;;;;;2.17;1.23;;;;;;;;;;5033770;28;20037;-54
2023/11/04 01:56:06;;;;;;;1.50;1.05;;;11.00;99.90;;;;;;5030871;28;20037;-55
2023/11/04 01:58:33;;;;;;;3.22;1.67;;;10.90;99.90;;;;;;5033278;28;20037;-54
2023/11/04 02:01:00;;;;;;;3.10;1.58;;;11.00;99.90;;;;;;5033381;28;20037;-53
2023/11/04 02:03:27;;;;;;;4.22;1.60;;;11.00;99.90;;;;;;5033557;28;20033;-53
2023/11/04 02:05:53;;;;;;;3.20;1.65;;;11.10;99.90;;;;;;5033444;28;20029;-53
2023/11/04 02:08:19;;;;;;;3.38;2.15;;;11.20;99.90;;;;;;5033331;28;20045;-53
2023/11/04 02:10:46;;;;;;;5.07;1.92;;;11.20;99.90;;;;;;5033187;28;20043;-55
2023/11/04 02:13:11;;;;;;;6.35;2.35;;;11.20;99.90;;;;;;5033618;28;20029;-55
2023/11/04 02:15:37;;;;;;;5.78;2.17;;;11.30;99.90;;;;;;5032888;28;20032;-54
2023/11/04 02:18:03;;;;;;;5.07;2.00;;;11.40;99.90;;;;;;5033424;28;20029;-54
2023/11/04 02:20:32;;;;;;;7.03;2.35;;;11.70;99.90;;;;;;5033123;28;20037;-54
2023/11/04 02:22:58;;;;;;;7.10;1.98;;;;;;;;;;5032949;28;20025;-54
2023/11/04 02:25:29;;;;;;;4.72;2.13;;;12.50;99.90;;;;;;5033347;28;20091;-54
2023/11/04 02:27:54;;;;;;;5.72;3.83;;;12.60;99.90;;;;;;5032827;28;20615;-54
2023/11/04 02:30:20;;;;;;;4.72;2.38;;;;;;;;;;5032967;28;20117;-55
2023/11/04 02:32:46;;;;;;;5.38;2.75;;;13.10;99.90;;;;;;5032787;28;20686;-55
2023/11/04 02:35:15;;;;;;;5.72;2.20;;;13.20;99.90;;;;;;5033021;28;20033;-54
2023/11/04 02:37:41;;;;;;;4.50;2.22;;;13.40;99.90;;;;;;5032675;28;20107;-54
2023/11/04 02:40:10;;;;;;;4.13;1.75;;;13.50;99.90;;;;;;5032603;28;20447;-55
2023/11/04 02:42:36;;;;;;;3.55;1.55;;;13.60;99.90;;;;;;5032728;28;20052;-55
2023/11/04 02:45:05;;;;;;;4.20;2.00;;;13.70;99.90;;;;;;5032748;28;20025;-54
2023/11/04 02:47:31;;;;;;;5.55;1.95;;;13.70;99.90;;;;;;5032476;28;20155;-55
2023/11/04 02:49:57;;;;;;;4.50;1.73;;;13.60;99.90;;;;;;5032456;28;20120;-54
2023/11/04 02:52:22;;;;;;;3.40;1.48;;;14.10;99.90;;;;;;5032351;28;20025;-55
2023/11/04 02:54:49;;;;;;;4.05;1.50;;;13.90;99.90;;;;;;5032589;28;20489;-55
2023/11/04 02:57:15;;;;;;;6.18;2.80;;;14.00;99.90;;;;;;4981519;28;20037;-56
2023/11/04 02:59:41;;;;;;;6.05;2.67;;;14.10;99.90;;;;;;5032384;28;20028;-56
2023/11/04 03:02:07;;;;;;;6.90;2.80;;;14.10;99.90;;;;;;5032308;28;20030;-55
2023/11/04 03:04:34;;;;;;;10.15;3.70;;;14.10;99.90;;;;;;5032389;28;20473;-55
2023/11/04 03:07:00;;;;;;;8.60;2.80;;;14.20;99.90;;;;;;5032266;28;20382;-56
2023/11/04 03:09:26;;;;;;;3.17;1.50;;;14.60;99.90;;;;;;5032211;28;20034;-55
2023/11/04 03:11:54;;;;;;;3.17;1.95;;;13.90;99.90;;;;;;4980978;28;20493;-54
2023/11/04 03:14:19;;;;;;;4.20;1.63;;;13.90;99.90;;;;;;5032334;28;20061;-54
2023/11/04 03:16:45;;;;;;;5.78;2.10;;;13.80;99.90;;;;;;5032123;28;20064;-55
2023/11/04 03:19:11;;;;;;;5.88;2.38;;;13.80;99.90;;;;;;5031972;28;20734;-55
2023/11/04 03:21:37;;;;;;;3.50;1.67;;;14.00;99.90;;;;;;5032258;28;20079;-54
2023/11/04 03:24:03;;;;;;;4.72;2.05;;;;;;;;;;5031959;28;20116;-54
2023/11/04 03:26:28;;;;;;;8.40;4.60;;;14.20;99.90;;;;;;5031210;28;20542;-54
2023/11/04 03:28:54;;;;;;;11.63;5.80;;;14.20;99.90;;;;;;5032170;28;20049;-55
2023/11/04 03:31:20;;;;;;;7.53;3.83;;;14.10;99.90;;;;;;5031528;28;20527;-54
2023/11/04 03:33:46;;;;;;;13.30;8.45;;;13.70;99.90;;;;;;5032080;28;20056;-54
2023/11/04 03:36:11;;;;;;;10.23;5.53;;;13.30;99.90;;;;;;5031902;28;20539;-54
2023/11/04 03:38:40;;;;;;;9.25;5.18;;;13.10;99.90;;;;;;4996807;28;20432;-55
2023/11/04 03:41:06;;;;;;;7.78;4.70;;;12.90;99.90;;;;;;5031835;28;20033;-55
2023/11/04 03:43:32;;;;;;;6.78;3.70;;;12.90;99.90;;;;;;5031817;28;20038;-54
2023/11/04 03:45:58;;;;;;;5.60;3.70;;;13.20;99.90;;;;;;5031948;28;20025;-55
2023/11/04 03:48:26;;;;;;;6.75;3.60;;;13.30;99.90;;;;;;5031526;28;20058;-55
2023/11/04 03:50:52;;;;;;;7.30;3.80;;;13.20;99.90;;;;;;5031942;28;20041;-55
2023/11/04 03:53:18;;;;;;;8.75;3.58;;;13.20;99.90;;;;;;5032036;28;20029;-55
2023/11/04 03:55:44;;;;;;;7.07;2.90;;;;;;;;;;5031789;28;20025;-54
2023/11/04 03:58:09;;;;;;;6.65;2.97;;;12.90;99.90;;;;;;5031662;28;20029;-55
2023/11/04 04:00:35;;;;;;;4.93;2.33;;;13.10;99.90;;;;;;5032001;28;20030;-55
2023/11/04 04:03:01;;;;;;;5.20;2.72;;;13.00;99.90;;;;;;4996750;28;20060;-55
2023/11/04 04:05:27;;;;;;;6.22;3.75;;;13.00;99.90;;;;;;4996732;28;20064;-55
2023/11/04 04:07:52;;;;;;;6.57;4.03;;;13.20;99.90;;;;;;5031453;28;20385;-54
2023/11/04 04:10:18;;;;;;;18.42;13.50;;;13.40;99.90;;;;;;5031787;28;20034;-55
2023/11/04 04:12:47;;;;;;;8.20;5.43;;;;;;;;;;5012861;28;20615;-55
2023/11/04 04:15:14;;;;;;;6.82;3.78;;;;;;;;;;5031677;28;20084;-55
2023/11/04 04:17:40;;;;;;;5.13;2.42;;;13.60;99.90;;;;;;5031500;28;20067;-55
2023/11/04 04:20:06;;;;;;;6.07;3.10;;;14.00;99.90;;;;;;4948327;28;20084;-54
2023/11/04 04:22:32;;;;;;;3.78;2.35;;;13.80;99.90;;;;;;4964193;28;20045;-54
2023/11/04 04:24:58;;;;;;;4.57;2.33;;;;;;;;;;5031317;28;20037;-54
2023/11/04 04:27:23;;;;;;;4.95;2.38;;;13.60;99.90;;;;;;5031210;28;20477;-55
2023/11/04 04:29:49;;;;;;;5.13;2.78;;;13.40;99.90;;;;;;5031420;28;20037;-54
2023/11/04 04:32:15;;;;;;;5.30;2.50;;;13.10;99.90;;;;;;5031631;28;20120;-54
2023/11/04 04:34:41;;;;;;;6.80;2.88;;;13.00;99.90;;;;;;5031413;28;20049;-54
2023/11/04 04:37:07;;;;;;;5.45;3.00;;;;;;;;;;5031262;28;20037;-54
2023/11/04 04:39:33;;;;;;;4.40;2.58;;;12.90;99.90;;;;;;5035093;28;20037;-54
2023/11/04 04:41:59;;;;;;;7.78;2.83;;;12.60;99.90;;;;;;5035004;28;20029;-56
2023/11/04 04:44:25;;;;;;;5.40;2.28;;;12.60;99.90;;;;;;5034780;28;20049;-54
2023/11/04 04:46:50;;;;;;;4.78;1.95;;;12.40;99.90;;;;;;5034842;28;20503;-55
2023/11/04 04:49:17;;;;;;;3.97;2.53;;;;;;;;;;4983492;28;20051;-55
2023/11/04 04:51:42;;;;;;;10.80;4.05;;;12.30;99.90;;;;;;5034651;28;20555;-54
2023/11/04 04:54:08;;;;;;;4.93;3.10;;;12.30;99.90;;;;;;5034726;28;20037;-54
2023/11/04 04:56:34;;;;;;;7.57;3.97;;;12.20;99.90;;;;;;5034778;28;20028;-55
2023/11/04 04:58:59;;;;;;;3.47;1.77;;;12.20;99.90;;;;;;5034677;28;20112;-55
2023/11/04 05:01:26;;;;;;;6.28;2.92;;;12.10;99.90;;;;;;5034346;28;20378;-55
2023/11/04 05:03:53;;;;;;;7.00;3.22;;;12.10;99.90;;;;;;5034711;28;20036;-55
2023/11/04 05:06:19;;;;;;;6.78;3.65;;;12.20;99.90;;;;;;5034315;28;20033;-55
2023/11/04 05:08:45;;;;;;;10.27;3.70;;;12.10;99.90;;;;;;5034433;28;20050;-55
2023/11/04 05:11:11;;;;;;;6.40;3.78;;;12.10;99.90;;;;;;5034325;28;20037;-54
2023/11/04 05:13:36;;;;;;;7.55;4.05;;;12.10;99.90;;;;;;5034478;28;20040;-54
2023/11/04 05:16:02;;;;;;;7.65;3.30;;;12.20;99.90;;;;;;4983344;28;20041;-54
2023/11/04 05:18:28;;;;;;;7.15;4.15;;;12.10;99.90;;;;;;4950563;28;20049;-55
2023/11/04 05:20:56;;;;;;;4.18;2.88;;;12.20;99.90;;;;;;5034132;28;20037;-53
2023/11/04 05:23:22;;;;;;;5.28;3.65;;;12.10;99.90;;;;;;5034123;28;20116;-54
2023/11/04 05:25:49;;;;;;;9.35;4.10;;;11.90;99.90;;;;;;5034142;28;20036;-54
2023/11/04 05:28:18;;;;;;;8.35;5.22;;;11.90;99.90;;;;;;5033951;28;20099;-56
2023/11/04 05:30:43;;;;;;;6.28;3.33;;;11.90;99.90;;;;;;5034020;28;20061;-56
2023/11/04 05:33:09;;;;;;;6.78;4.20;;;12.10;99.90;;;;;;5034044;28;20119;-55
2023/11/04 05:35:36;;;;;;;6.25;4.65;;;;;;;;;;5034078;28;20041;-55
2023/11/04 05:38:03;;;;;;;6.40;3.30;;;;;;;;;;5034156;28;20534;-54
2023/11/04 05:40:31;;;;;;;4.85;2.60;;;;;;;;;;5033683;28;20040;-54
2023/11/04 05:42:57;;;;;;;4.53;2.90;;;;;;;;;;5033717;28;20095;-54
2023/11/04 05:45:24;;;;;;;6.18;3.45;;;;;;;;;;5033852;28;20381;-54
2023/11/04 05:47:50;;;;;;;5.47;2.67;;;;;;;;;;5033298;28;20056;-53
2023/11/04 05:50:16;;;;;;;5.75;3.00;;;;;;;;;;5033164;28;20044;-54
2023/11/04 05:52:44;;;;;;;6.15;3.30;;;11.80;99.90;;;;;;5033577;28;20029;-54
2023/11/04 05:55:13;;;;;;;6.70;3.22;;;11.70;99.90;;;;;;5033527;28;20037;-54
2023/11/04 05:57:39;;;;;;;7.60;2.90;;;11.60;99.90;;;;;;5033406;28;20036;-54
2023/11/04 06:00:11;;;;;;;7.00;2.70;;;11.60;99.90;;;;;;5033416;28;20045;-53
2023/11/04 06:02:45;;;;;;;7.18;3.10;;;11.60;99.90;;;;;;5000145;28;20037;-53
2023/11/04 06:05:13;;;;;;;4.55;2.58;;;11.60;99.90;;;;;;5033249;28;20512;-55
2023/11/04 06:07:39;;;;;;;5.45;2.45;;;11.90;99.90;;;;;;4983117;28;20440;-53
2023/11/04 06:10:08;;;;;;;7.03;2.83;;;11.70;99.90;;;;;;5033491;28;20389;-55
2023/11/04 06:12:35;;;;;;;8.98;3.85;;;11.80;99.90;;;;;;4983119;28;20116;-54
2023/11/04 06:15:01;;;;;;;7.85;2.90;;;12.10;99.90;;;;;;5033229;28;20487;-54
2023/11/04 06:17:27;;;;;;;5.68;3.15;;;12.00;99.90;;;;;;5033037;28;20085;-52
2023/11/04 06:19:57;;;;;;;9.95;2.72;;;11.90;99.90;;;;;;5033420;28;20041;-53
2023/11/04 06:22:23;;;;;;;6.88;2.67;;;11.90;99.90;;;;;;5032927;28;20053;-53
2023/11/04 06:24:52;;;;;;;6.85;2.85;;;11.90;99.90;;;;;;5014238;28;20493;-53
2023/11/04 06:27:18;;;;;;;7.15;2.65;;;11.80;99.90;;;;;;5033412;28;20038;-53
2023/11/04 06:29:44;;;;;;;7.13;2.60;;;11.80;99.90;;;;;;5033243;28;20045;-53
2023/11/04 06:32:10;;;;;;;4.97;2.45;;;11.80;99.90;;;;;;5032902;28;20373;-54
2023/11/04 06:34:36;;;;;;;5.95;2.53;;;11.80;99.90;;;;;;5032741;28;20113;-54
2023/11/04 06:37:05;;;;;;;5.97;2.65;;;11.90;99.90;;;;;;5032698;28;20532;-55
2023/11/04 06:39:31;;;;;;;6.43;3.08;;;12.00;99.90;;;;;;5032779;28;20034;-55
2023/11/04 06:41:57;;;;;;;6.93;2.63;;;12.20;99.90;;;;;;5032415;28;20107;-55
2023/11/04 06:44:22;;;;;;;6.72;4.20;;;12.10;99.90;;;;;;5032468;28;20029;-53
2023/11/04 06:46:48;;;;;;;8.98;5.13;;;12.20;99.90;;;;;;4997566;28;20045;-53
2023/11/04 06:49:15;;;;;;;5.28;3.00;;;12.20;99.90;;;;;;4981052;28;20053;-53
2023/11/04 06:51:41;;;;;;;7.63;3.60;;;12.30;99.90;;;;;;4997257;28;20041;-53
2023/11/04 06:54:08;;;;;;;4.85;2.58;;;12.70;99.90;;;;;;5032942;28;20044;-53
2023/11/04 06:56:33;;;;;;;6.78;2.80;;;12.30;99.90;;;;;;5032249;28;20060;-53
2023/11/04 06:58:59;;;;;;;5.78;2.42;;;12.50;99.90;;;;;;5032282;28;20033;-53
2023/11/04 07:01:26;;;;;;;7.00;2.78;;;12.60;99.90;;;;;;5031243;28;20104;-54
2023/11/04 07:03:52;;;;;;;5.28;2.65;;;;;;;;;;5032442;28;20033;-53
2023/11/04 07:06:18;;;;;;;4.15;2.90;;;12.50;99.90;;;;;;4997261;28;20042;-53
2023/11/04 07:08:45;;;;;;;4.78;2.72;;;12.60;99.90;;;;;;5032004;28;20042;-54
2023/11/04 07:11:16;;;;;;;6.72;3.17;;;12.50;99.90;;;;;;5032292;28;20028;-54
2023/11/04 07:13:42;;;;;;;3.75;2.00;;;12.50;99.90;;;;;;5032265;28;20065;-52
2023/11/04 07:16:13;;;;;;;5.55;3.35;;;12.60;99.90;;;;;;5029087;28;20112;-54
2023/11/04 07:18:40;;;;;;;6.88;2.60;;;;;;;;;;5032140;28;20034;-54
2023/11/04 07:21:06;;;;;;;5.78;2.58;;;12.80;99.90;;;;;;5031989;28;20048;-54
2023/11/04 07:23:32;;;;;;;4.13;2.03;;;12.80;99.90;;;;;;5031611;28;20033;-54
2023/11/04 07:25:58;;;;;;;6.18;3.00;;;12.90;99.90;;;;;;5031036;28;20037;-55
2023/11/04 07:28:24;;;;;;;6.93;2.22;;;12.90;99.90;;;;;;5030952;28;20370;-55
2023/11/04 07:30:52;;;;;;;5.47;2.35;;;12.90;99.90;;;;;;4979626;28;20037;-58
2023/11/04 07:33:19;;;;;;;5.28;2.13;;;13.00;99.90;;;;;;5031827;28;20033;-57
2023/11/04 07:35:45;;;;;;;6.07;2.40;;;;;;;;;;5032240;28;20384;-55
2023/11/04 07:38:12;;;;;;;5.20;2.60;;;12.90;99.90;;;;;;5012884;28;20034;-58
2023/11/04 07:40:38;;;;;;;5.28;2.40;;;13.00;99.90;;;;;;5031528;28;20037;-57
2023/11/04 07:43:05;;;;;;;5.55;2.30;;;13.00;99.90;;;;;;5031968;28;20472;-55
2023/11/04 07:45:32;;;;;;;7.25;3.20;;;12.90;99.90;;;;;;5031440;28;20038;-58
2023/11/04 07:47:58;;;;;;;3.67;2.20;;;;;;;;;;5031201;28;20617;-58
2023/11/04 07:50:25;;;;;;;5.70;2.00;;;;;;;;;;5032085;28;20053;-55
2023/11/04 07:52:50;;;;;;;5.57;2.40;;;13.00;99.90;;;;;;5031409;28;20033;-54
2023/11/04 07:55:16;;;;;;;7.32;2.20;;;13.10;99.90;;;;;;5031067;28;20108;-56
2023/11/04 07:57:42;;;;;;;3.17;2.15;;;13.10;99.90;;;;;;5031168;28;20029;-56
2023/11/04 08:00:10;;;;;;;3.72;1.92;;;13.10;99.90;;;;;;5024605;28;20038;-55
2023/11/04 08:02:40;;;;;;;5.47;2.30;;;13.20;99.90;;;;;;4983478;28;20056;-55
2023/11/04 08:05:07;;;;;;;4.75;2.05;;;13.30;99.90;;;;;;5018197;28;20116;-55
2023/11/04 08:07:33;;;;;;;7.68;2.10;;;13.40;99.90;;;;;;5026582;28;20116;-56
2023/11/04 08:09:59;;;;;;;13.13;8.77;;;13.50;99.90;;;;;;5023453;28;20114;-56
2023/11/04 08:12:25;;;;;;;41.88;25.60;;;13.60;99.90;;;;;;5025813;28;20033;-56
2023/11/04 08:14:51;;;;;;;21.90;14.60;;;13.70;99.90;;;;;;5026229;28;20033;-54
2023/11/04 08:17:17;;;;;;;11.52;5.93;;;13.70;99.90;;;;;;5027237;28;20116;-56
2023/11/04 08:19:43;;;;;;;4.72;2.65;;;13.80;99.90;;;;;;5025146;28;20076;-56
2023/11/04 08:22:12;;;;;;;2.10;1.65;;;13.80;99.90;;;;;;5029743;28;20037;-54
2023/11/04 08:24:38;;;;;;;6.75;1.88;;;13.70;99.90;;;;;;5028007;28;20165;-55
2023/11/04 08:27:04;;;;;;;4.45;3.08;;;13.80;99.90;;;;;;5025013;28;20494;-55
2023/11/04 08:29:30;;;;;;;3.80;1.48;;;13.90;99.90;;;;;;5023454;28;20053;-57
2023/11/04 08:31:57;;;;;;;2.78;1.10;;;14.00;99.90;;;;;;5022103;28;20493;-56
2023/11/04 08:34:23;;;;;;;2.38;1.60;;;13.90;99.90;;;;;;5025557;28;20030;-55
2023/11/04 08:36:48;;;;;;;3.75;1.13;;;13.90;99.90;;;;;;5023054;28;20044;-55
2023/11/04 08:39:14;;;;;;;4.50;2.13;;;13.80;99.90;;;;;;4995073;28;20416;-56
2023/11/04 08:41:40;;;;;;;4.47;1.48;;;13.80;99.90;;;;;;5027081;28;20079;-56
2023/11/04 08:44:07;;;;;;;4.40;2.28;;;13.90;99.90;;;;;;5029256;28;20028;-55
2023/11/04 08:46:33;;;;;;;3.15;2.85;;;14.00;99.90;;;;;;4974991;28;20122;-56
2023/11/04 08:48:59;;;;;;;5.75;2.88;;;13.90;99.90;;;;;;5020509;28;20087;-56
2023/11/04 08:51:25;;;;;;;4.57;2.97;;;14.00;99.90;;;;;;5025454;28;20061;-56
2023/11/04 08:53:51;;;;;;;4.18;3.33;;;14.10;99.90;;;;;;5022322;28;20692;-55
2023/11/04 08:56:17;;;;;;;8.50;5.55;;;14.40;99.90;;;;;;5018065;28;20077;-56
2023/11/04 08:58:43;;;;;;;11.02;6.22;;;14.20;99.90;;;;;;5025161;28;20030;-54
2023/11/04 09:01:10;;;;;;;17.52;12.52;;;14.50;99.90;;;;;;5025862;28;20389;-55
2023/11/04 09:03:38;;;;;;;9.40;6.43;;;14.30;99.90;;;;;;5021341;28;20037;-55
2023/11/04 09:06:05;;;;;;;8.48;4.95;;;14.30;99.90;;;;;;5020066;28;20026;-56
2023/11/04 09:08:31;;;;;;;3.28;2.20;;;13.60;99.90;;;;;;4990485;28;20554;-56
2023/11/04 09:10:56;;;;;;;4.22;2.42;;;13.40;99.90;;;;;;5030266;28;20033;-56
2023/11/04 09:13:26;;;;;;;5.13;2.08;;;13.40;99.90;;;;;;5028268;28;20112;-56
2023/11/04 09:15:53;;;;;;;5.80;3.05;;;13.50;99.90;;;;;;5027455;28;20068;-55
2023/11/04 09:18:19;;;;;;;3.30;2.30;;;13.30;99.90;;;;;;5024230;28;20030;-56
2023/11/04 09:20:45;;;;;;;44.00;26.45;;;13.00;99.90;;;;;;5027889;28;20120;-55
2023/11/04 09:23:11;;;;;;;2.42;1.95;;;12.90;99.90;;;;;;4996039;28;20461;-55
2023/11/04 09:25:37;;;;;;;18.60;11.32;;;12.70;99.90;;;;;;5023094;28;20116;-55
2023/11/04 09:28:03;;;;;;;21.17;14.60;;;12.90;99.90;;;;;;5010869;28;20416;-55
2023/11/04 09:30:30;;;;;;;14.18;10.05;;;13.30;99.90;;;;;;4963066;28;20048;-55
2023/11/04 09:32:55;;;;;;;4.32;2.17;;;13.30;99.90;;;;;;5022445;28;20042;-56
2023/11/04 09:35:22;;;;;;;5.30;3.60;;;;;;;;;;4990180;28;20201;-55
2023/11/04 09:37:48;;;;;;;4.50;3.10;;;12.90;99.90;;;;;;5022925;28;20061;-57
2023/11/04 09:40:14;;;;;;;19.15;9.90;;;13.00;99.90;;;;;;5018705;28;20049;-55
2023/11/04 09:42:41;;;;;;;23.58;11.05;;;13.00;99.90;;;;;;5026084;28;20029;-55
2023/11/04 09:45:08;;;;;;;19.20;10.10;;;13.10;99.90;;;;;;5026681;28;20025;-55
2023/11/04 09:47:34;;;;;;;17.52;9.40;;;13.40;99.90;;;;;;4955030;28;20034;-54
2023/11/04 09:49:59;;;;;;;19.10;10.27;;;13.40;99.90;;;;;;4972765;28;20397;-54
2023/11/04 09:52:29;;;;;;;7.28;3.90;;;;;;;;;;5027460;28;20025;-55
2023/11/04 09:54:57;;;;;;;19.38;8.45;;;14.40;99.90;;;;;;5029053;28;20029;-55
2023/11/04 09:57:23;;;;;;;49.70;23.52;;;;;;;;;;5027644;28;20108;-55
2023/11/04 09:59:49;;;;;;;16.98;9.60;;;15.80;99.90;;;;;;5030948;28;20060;-54
2023/11/04 10:02:16;;;;;;;19.95;11.38;;;17.20;99.90;;;;;;4992812;28;20477;-55
2023/11/04 10:04:42;;;;;;;3.17;2.47;;;18.50;99.90;;;;;;4972484;28;20037;-54
2023/11/04 10:07:08;;;;;;;2.55;2.30;;;;;;;;;;5012522;28;20132;-55
2023/11/04 10:09:37;;;;;;;9.75;6.13;;;21.80;99.90;;;;;;5024145;28;20042;-54
2023/11/04 10:12:04;;;;;;;20.98;16.35;;;22.20;99.90;;;;;;5023965;28;20033;-55
2023/11/04 10:14:30;;;;;;;6.05;4.28;;;;;;;;;;5024621;28;20524;-55
2023/11/04 10:16:56;;;;;;;5.45;3.60;;;21.80;99.90;;;;;;4964798;28;20052;-55
2023/11/04 10:19:23;;;;;;;8.30;5.53;;;22.20;99.90;;;;;;5025655;28;20030;-55
2023/11/04 10:21:49;;;;;;;5.90;3.15;;;;;;;;;;5022565;28;20021;-55
2023/11/04 10:24:15;;;;;;;9.77;6.18;;;;;;;;;;5018534;28;20124;-55
2023/11/04 10:26:43;;;;;;;6.82;3.45;;;;;;;;;;4979373;28;20106;-55
2023/11/04 10:29:09;;;;;;;4.50;3.13;;;;;;;;;;5021909;28;20485;-55
2023/11/04 10:31:36;;;;;;;26.75;20.33;;;;;;;;;;5020343;28;20693;-56
2023/11/04 10:34:04;;;;;;;3.60;1.70;;;;;;;;;;5025031;28;20452;-55
2023/11/04 10:36:33;;;;;;;3.10;2.33;;;;;;;;;;5028405;28;20022;-55
2023/11/04 10:39:03;;;;;;;3.67;2.58;;;;;;;;;;5023160;28;20034;-56
2023/11/04 10:41:32;;;;;;;4.53;2.63;;;;;;;;;;4990259;28;20515;-55
2023/11/04 10:43:59;;;;;;;3.30;2.40;;;;;;;;;;5028606;28;20022;-56
2023/11/04 10:46:38;;;;;;;2.22;1.70;;;23.30;99.90;;;;;;5025135;28;20540;-56
2023/11/04 10:49:09;;;;;;;2.97;2.67;;;;;;;;;;5022185;28;20076;-55
2023/11/04 10:51:46;;;;;;;3.03;2.00;;;23.70;97.30;;;;;;5028864;28;20030;-55
2023/11/04 10:54:25;;;;;;;10.82;7.20;;;;;;;;;;5016710;28;20109;-56
2023/11/04 10:57:03;;;;;;;4.60;2.60;;;;;;;;;;5019866;28;20038;-55
2023/11/04 10:59:34;;;;;;;2.97;2.45;;;;;;;;;;5027337;28;20026;-55
2023/11/04 11:02:01;;;;;;;4.40;3.40;;;24.70;95.10;;;;;;5027356;28;20480;-55
2023/11/04 11:04:28;;;;;;;3.40;2.33;;;24.80;94.70;;;;;;5019875;28;20030;-56
2023/11/04 11:06:54;;;;;;;2.55;1.63;;;24.20;94.10;;;;;;5022972;28;20038;-56
2023/11/04 11:09:22;;;;;;;5.43;3.28;;;;;;;;;;5022502;28;20045;-55
2023/11/04 11:12:05;;;;;;;2.50;1.80;;;;;;;;;;5018007;28;20125;-55
2023/11/04 11:14:31;;;;;;;3.70;3.13;;;;;;;;;;5026593;28;20053;-54
2023/11/04 11:16:59;;;;;;;4.28;2.25;;;;;;;;;;5022149;28;20080;-54
2023/11/04 11:19:25;;;;;;;2.30;2.00;;;;;;;;;;5016674;28;20029;-55
2023/11/04 11:21:51;;;;;;;3.97;2.28;;;24.70;99.90;;;;;;5024067;28;20061;-55
2023/11/04 11:24:20;;;;;;;4.10;2.13;;;24.90;95.90;;;;;;5025261;28;20455;-54
2023/11/04 11:27:07;;;;;;;5.72;3.80;;;25.30;99.30;;;;;;5022712;28;20045;-55
2023/11/04 11:29:44;;;;;;;3.70;1.90;;;24.50;93.00;;;;;;5024959;28;20050;-54
2023/11/04 11:32:09;;;;;;;3.67;1.77;;;23.10;92.90;;;;;;5018972;28;20116;-55
2023/11/04 11:34:46;;;;;;;4.28;1.88;;;24.60;93.70;;;;;;5014826;28;20047;-55
2023/11/04 11:37:12;;;;;;;1.45;1.30;;;23.50;93.40;;;;;;5019808;28;20481;-54
2023/11/04 11:39:38;;;;;;;1.73;1.60;;;;;;;;;;5020870;28;20040;-54
2023/11/04 11:42:04;;;;;;;3.28;1.80;;;22.70;99.90;;;;;;5023576;28;20041;-55
2023/11/04 11:44:30;;;;;;;3.65;2.10;;;23.10;97.80;;;;;;4977196;28;20049;-55
2023/11/04 11:46:56;;;;;;;7.03;1.92;;;23.90;96.20;;;;;;4988188;28;20045;-54
2023/11/04 11:49:22;;;;;;;4.03;1.75;;;;;;;;;;4988270;28;20053;-54
2023/11/04 11:51:48;;;;;;;4.47;2.50;;;25.00;92.40;;;;;;5031188;28;20110;-54
2023/11/04 11:54:14;;;;;;;2.75;1.67;;;;;;;;;;4976761;28;20072;-54
2023/11/04 11:56:42;;;;;;;3.20;1.90;;;24.50;99.60;;;;;;5027032;28;20130;-55
2023/11/04 11:59:09;;;;;;;3.50;2.00;;;;;;;;;;5023903;28;20026;-54
2023/11/04 12:01:35;;;;;;;3.65;1.70;;;24.20;99.90;;;;;;5026742;28;20033;-54
2023/11/04 12:04:05;;;;;;;2.67;1.30;;;24.30;99.90;;;;;;4968694;28;20042;-54
2023/11/04 12:06:32;;;;;;;7.72;1.63;;;23.60;92.80;;;;;;4987124;28;20060;-54
2023/11/04 12:08:58;;;;;;;2.72;1.45;;;;;;;;;;4984011;28;20584;-54
2023/11/04 12:11:26;;;;;;;7.15;1.73;;;;;;;;;;4984387;28;20126;-55
2023/11/04 12:13:52;;;;;;;2.53;1.52;;;23.60;99.90;;;;;;4987789;28;20078;-54
2023/11/04 12:16:18;;;;;;;5.72;3.28;;;22.40;93.40;;;;;;4983303;28;20027;-54
2023/11/04 12:18:47;;;;;;;4.95;2.30;;;22.70;93.90;;;;;;4984111;28;20561;-54
2023/11/04 12:21:14;;;;;;;4.13;2.03;;;22.50;93.80;;;;;;4987299;28;20039;-54
2023/11/04 12:23:40;;;;;;;3.28;1.90;;;22.80;94.30;;;;;;4987142;28;20409;-54
2023/11/04 12:26:07;;;;;;;3.45;1.27;;;23.00;94.10;;;;;;4985418;28;20038;-54
2023/11/04 12:28:39;;;;;;;1.38;0.90;;;23.30;93.30;;;;;;4946111;28;20056;-54
2023/11/04 12:31:06;;;;;;;3.05;1.25;;;;;;;;;;4991417;28;20052;-54
2023/11/04 12:33:35;;;;;;;2.63;1.50;;;;;;;;;;4984223;28;20041;-54
2023/11/04 12:36:11;;;;;;;2.85;1.10;;;21.80;94.10;;;;;;5023890;28;20076;-52
2023/11/04 12:38:37;;;;;;;3.00;1.60;;;21.60;94.50;;;;;;5026709;28;20472;-53
2023/11/04 12:41:03;;;;;;;2.20;1.52;;;21.80;95.30;;;;;;4978765;28;20072;-53
2023/11/04 12:43:29;;;;;;;1.60;0.98;;;22.50;95.30;;;;;;4972966;28;20473;-54
2023/11/04 12:45:59;;;;;;;2.90;1.55;;;22.50;94.10;;;;;;5025872;28;20079;-54
2023/11/04 12:48:25;;;;;;;4.32;2.40;;;22.80;94.40;;;;;;5022536;28;20512;-54
2023/11/04 12:50:52;;;;;;;2.38;1.05;;;;;;;;;;4986187;28;20045;-53
2023/11/04 12:53:19;;;;;;;2.45;1.45;;;23.50;99.90;;;;;;5026970;28;20527;-53
2023/11/04 12:55:45;;;;;;;2.50;1.17;;;23.20;93.80;;;;;;5029588;28;20555;-54
2023/11/04 12:58:14;;;;;;;5.30;2.10;;;23.40;94.50;;;;;;5018208;28;20358;-54
2023/11/04 13:00:40;;;;;;;4.22;1.90;;;23.10;95.10;;;;;;5021419;28;20136;-53